Time;durP1;ratioP1;P1;durP2;ratioP2;P2;SDS_P1;SDS_P2;PMS_P1;PMS_P2;Temp;Humidity;BMP_temperature;BMP_pressure;BME280_temperature;BME280_humidity;BME280_pressure;Samples;Min_cycle;Max_cycle;Signal;HPM_P1;HPM_P2
2024/01/09 00:00:00;;;;;;;;;;;;;;;-3.17;86.73;103431.94;5033871;28;19917;-75
2024/01/09 00:02:25;;;;;;;;;;;;;;;-3.13;86.60;103433.00;5035696;28;19998;-74
2024/01/09 00:04:50;;;;;;;;;;;;;;;-3.13;86.43;103422.72;5036088;28;19913;-75
2024/01/09 00:07:15;;;;;;;;;;;;;;;-3.14;86.41;103426.13;5022501;28;19921;-74
2024/01/09 00:09:40;;;;;;;;;;;;;;;-3.16;86.67;103426.03;5036331;28;19980;-75
2024/01/09 00:12:06;;;;;;;;;;;;;;;-3.22;86.35;103412.88;5035224;28;19917;-75
2024/01/09 00:14:31;;;;;;;;;;;;;;;-3.24;86.01;103426.38;5034643;28;19927;-75
2024/01/09 00:16:57;;;;;;;;;;;;;;;-3.20;86.14;103413.84;5029218;28;19956;-75
2024/01/09 00:19:22;;;;;;;;;;;;;;;-3.18;85.56;103419.06;5035851;28;20223;-75
2024/01/09 00:21:47;;;;;;;;;;;;;;;-3.24;85.16;103427.25;5033565;28;19913;-74
2024/01/09 00:24:13;;;;;;;;;;;;;;;-3.22;85.41;103418.00;5033858;28;19924;-74
2024/01/09 00:26:41;;;;;;;;;;;;;;;-3.37;84.92;103417.97;5030993;28;19940;-75
2024/01/09 00:29:06;;;;;;;;;;;;;;;-3.47;84.51;103406.31;5030425;28;19920;-75
2024/01/09 00:31:32;;;;;;;;;;;;;;;-3.47;84.27;103413.13;5034608;28;20116;-75
2024/01/09 00:33:57;;;;;;;;;;;;;;;-3.37;84.64;103411.97;5027017;28;20232;-75
2024/01/09 00:36:23;;;;;;;;;;;;;;;-3.32;84.48;103414.00;5033249;28;20207;-75
2024/01/09 00:38:49;;;;;;;;;;;;;;;-3.37;83.89;103409.41;5039805;28;19912;-75
2024/01/09 00:41:14;;;;;;;;;;;;;;;-3.35;84.10;103413.81;5035083;28;19916;-75
2024/01/09 00:43:40;;;;;;;;;;;;;;;-3.37;84.21;103406.84;5034524;28;19912;-75
2024/01/09 00:46:05;;;;;;;;;;;;;;;-3.46;83.81;103409.75;5034562;28;20314;-75
2024/01/09 00:48:30;;;;;;;;;;;;;;;-3.43;84.36;103404.81;5038975;28;20290;-75
2024/01/09 00:50:55;;;;;;;;;;;;;;;-3.37;84.32;103414.53;5053382;28;19917;-75
2024/01/09 00:53:20;;;;;;;;;;;;;;;-3.44;83.74;103409.84;5044096;28;20120;-75
2024/01/09 00:55:46;;;;;;;;;;;;;;;-3.54;83.97;103405.88;5035458;28;20230;-75
2024/01/09 00:58:11;;;;;;;;;;;;;;;-3.57;84.35;103406.56;5041194;28;20239;-75
2024/01/09 01:00:36;;;;;;;;;;;;;;;-3.51;84.51;103406.03;5033674;28;20266;-75
2024/01/09 01:03:02;;;;;;;;;;;;;;;-3.48;84.48;103412.22;5029123;28;19948;-74
2024/01/09 01:05:28;;;;;;;;;;;;;;;-3.45;84.78;103408.09;5035549;28;19917;-74
2024/01/09 01:07:53;;;;;;;;;;;;;;;-3.42;84.83;103415.94;5034618;28;19913;-75
2024/01/09 01:10:18;;;;;;;;;;;;;;;-3.43;84.72;103414.19;5034895;28;19944;-75
2024/01/09 01:12:44;;;;;;;;;;;;;;;-3.32;84.48;103428.50;5031409;28;19913;-75
2024/01/09 01:15:09;;;;;;;;;;;;;;;-3.32;84.93;103418.25;5026286;28;19928;-75
2024/01/09 01:17:34;;;;;;;;;;;;;;;-3.41;84.86;103417.72;5034787;28;19920;-75
2024/01/09 01:19:59;;;;;;;;;;;;;;;-3.50;84.75;103413.81;5034437;28;19924;-75
2024/01/09 01:22:24;;;;;;;;;;;;;;;-3.56;84.58;103413.47;5034966;28;19912;-75
2024/01/09 01:24:50;;;;;;;;;;;;;;;-3.58;84.62;103425.28;5026253;28;20377;-75
2024/01/09 01:27:15;;;;;;;;;;;;;;;-3.70;84.65;103419.44;5030429;28;20298;-75
2024/01/09 01:29:41;;;;;;;;;;;;;;;-3.68;84.77;103417.84;5025367;28;20145;-75
2024/01/09 01:32:09;;;;;;;;;;;;;;;-3.61;85.13;103419.97;5034540;28;19917;-74
2024/01/09 01:34:34;;;;;;;;;;;;;;;-3.58;85.24;103415.06;5028050;28;20296;-75
2024/01/09 01:37:00;;;;;;;;;;;;;;;-3.57;85.17;103432.16;5027141;28;19924;-75
2024/01/09 01:39:25;;;;;;;;;;;;;;;-3.62;85.01;103418.22;5034143;28;20176;-75
2024/01/09 01:41:50;;;;;;;;;;;;;;;-3.53;85.01;103420.44;5034563;28;20113;-75
2024/01/09 01:44:17;;;;;;;;;;;;;;;-3.56;85.16;103418.59;5032746;28;20184;-75
2024/01/09 01:46:43;;;;;;;;;;;;;;;-3.62;85.03;103415.66;5047735;28;20024;-75
2024/01/09 01:49:08;;;;;;;;;;;;;;;-3.63;85.07;103413.00;5033944;28;20319;-75
2024/01/09 01:51:33;;;;;;;;;;;;;;;-3.72;84.87;103418.47;5034005;28;19968;-74
2024/01/09 01:53:59;;;;;;;;;;;;;;;-3.86;85.05;103422.75;5034419;28;20228;-75
2024/01/09 01:56:24;;;;;;;;;;;;;;;-3.79;85.69;103414.66;5029866;28;19916;-75
2024/01/09 01:58:49;;;;;;;;;;;;;;;-3.76;85.85;103426.78;5032263;28;20091;-75
2024/01/09 02:04:18;;;;;;;;;;;;;;;-3.69;85.03;103427.22;5025560;28;19920;-74
2024/01/09 02:06:45;;;;;;;;;;;;;;;-3.74;85.02;103425.19;5035042;28;19916;-74
2024/01/09 02:09:10;;;;;;;;;;;;;;;-3.82;84.83;103424.72;5030706;28;19923;-75
2024/01/09 02:11:36;;;;;;;;;;;;;;;-3.83;84.86;103412.72;5033574;28;19948;-75
2024/01/09 02:14:01;;;;;;;;;;;;;;;-3.77;85.22;103425.88;5033418;28;19917;-75
2024/01/09 02:16:26;;;;;;;;;;;;;;;-3.69;85.26;103418.66;5033273;28;19928;-75
2024/01/09 02:18:52;;;;;;;;;;;;;;;-3.68;85.07;103420.41;5023834;28;20138;-74
2024/01/09 02:21:17;;;;;;;;;;;;;;;-3.71;84.64;103403.19;5021905;28;20004;-75
2024/01/09 02:23:44;;;;;;;;;;;;;;;-3.70;84.48;103410.06;5034108;28;20207;-75
2024/01/09 02:26:10;;;;;;;;;;;;;;;-3.76;84.11;103414.84;5033246;28;19920;-74
2024/01/09 02:28:45;;;;;;;;;;;;;;;-3.72;84.27;103414.22;5034504;28;20266;-75
2024/01/09 02:31:11;;;;;;;;;;;;;;;-3.73;84.54;103414.13;5033488;28;19980;-74
2024/01/09 02:33:36;;;;;;;;;;;;;;;-3.72;84.75;103408.22;5034029;28;19912;-75
2024/01/09 02:36:02;;;;;;;;;;;;;;;-3.62;84.71;103399.41;5033733;28;19917;-74
2024/01/09 02:38:27;;;;;;;;;;;;;;;-3.57;84.84;103398.88;5033924;28;19917;-75
2024/01/09 02:40:52;;;;;;;;;;;;;;;-3.59;84.34;103405.59;5033918;28;19967;-74
2024/01/09 02:43:17;;;;;;;;;;;;;;;-3.59;84.31;103400.47;5015641;28;19917;-74
2024/01/09 02:45:43;;;;;;;;;;;;;;;-3.73;83.65;103403.88;5015148;28;20234;-75
2024/01/09 02:48:08;;;;;;;;;;;;;;;-3.72;84.15;103393.72;5016041;28;20227;-75
2024/01/09 02:50:33;;;;;;;;;;;;;;;-3.62;84.45;103400.31;5018069;28;19919;-75
2024/01/09 02:52:58;;;;;;;;;;;;;;;-3.69;84.09;103387.94;5018094;28;19917;-74
2024/01/09 02:55:24;;;;;;;;;;;;;;;-3.88;83.95;103398.75;5035485;28;19921;-75
2024/01/09 02:57:49;;;;;;;;;;;;;;;-3.88;84.35;103397.06;5028958;28;19917;-75
2024/01/09 03:00:14;;;;;;;;;;;;;;;-3.89;84.18;103399.53;5037675;28;19979;-74
2024/01/09 03:02:40;;;;;;;;;;;;;;;-3.81;84.54;103395.75;5037327;28;19950;-74
2024/01/09 03:05:06;;;;;;;;;;;;;;;-3.74;84.57;103394.44;5037760;28;19990;-75
2024/01/09 03:07:32;;;;;;;;;;;;;;;-3.74;84.74;103386.75;5036927;28;20230;-75
2024/01/09 03:09:57;;;;;;;;;;;;;;;-3.78;84.72;103385.69;5019026;28;19983;-74
2024/01/09 03:12:22;;;;;;;;;;;;;;;-3.76;84.81;103389.22;5019839;28;19921;-74
2024/01/09 03:14:47;;;;;;;;;;;;;;;-3.69;85.49;103388.81;5037622;28;19909;-74
2024/01/09 03:17:12;;;;;;;;;;;;;;;-3.73;84.97;103383.41;5036638;28;19913;-75
2024/01/09 03:19:38;;;;;;;;;;;;;;;-3.74;85.18;103382.53;5036742;28;19979;-75
2024/01/09 03:22:03;;;;;;;;;;;;;;;-3.80;84.93;103382.16;5036927;28;19904;-74
2024/01/09 03:24:28;;;;;;;;;;;;;;;-3.78;85.06;103380.59;5036107;28;20263;-74
2024/01/09 03:26:54;;;;;;;;;;;;;;;-3.63;85.64;103382.28;5036910;28;19983;-74
2024/01/09 03:29:19;;;;;;;;;;;;;;;-3.70;85.39;103379.34;5036735;28;19988;-75
2024/01/09 03:31:44;;;;;;;;;;;;;;;-3.79;85.30;103381.34;5026023;28;19917;-75
2024/01/09 03:34:10;;;;;;;;;;;;;;;-3.82;85.53;103373.53;5035580;28;19916;-74
2024/01/09 03:36:36;;;;;;;;;;;;;;;-3.81;86.04;103377.81;5036747;28;19994;-74
2024/01/09 03:39:03;;;;;;;;;;;;;;;-3.75;86.21;103382.41;5034895;28;20213;-74
2024/01/09 03:41:28;;;;;;;;;;;;;;;-3.76;86.38;103381.53;5037116;28;19967;-74
2024/01/09 03:43:54;;;;;;;;;;;;;;;-3.63;86.96;103372.03;5036922;28;19905;-74
2024/01/09 03:46:19;;;;;;;;;;;;;;;-3.63;87.29;103378.03;5036663;28;19917;-74
2024/01/09 03:48:44;;;;;;;;;;;;;;;-3.75;86.91;103374.75;5032279;28;20232;-74
2024/01/09 03:51:09;;;;;;;;;;;;;;;-3.69;86.77;103375.13;5016789;28;19916;-75
2024/01/09 03:53:35;;;;;;;;;;;;;;;-3.87;86.42;103370.66;5017469;28;19906;-73
2024/01/09 03:56:00;;;;;;;;;;;;;;;-3.82;87.08;103376.06;5034144;28;19928;-73
2024/01/09 03:58:25;;;;;;;;;;;;;;;-3.73;87.87;103374.06;5031027;28;19920;-74
2024/01/09 04:00:50;;;;;;;;;;;;;;;-3.72;87.87;103364.69;5018027;28;19916;-75
2024/01/09 04:03:15;;;;;;;;;;;;;;;-3.73;87.69;103366.38;5024148;28;19952;-74
2024/01/09 04:05:41;;;;;;;;;;;;;;;-3.73;87.91;103368.94;5034527;28;19913;-75
2024/01/09 04:08:06;;;;;;;;;;;;;;;-3.75;87.85;103373.06;5036440;28;19916;-75
2024/01/09 04:10:31;;;;;;;;;;;;;;;-3.74;88.30;103373.97;5036022;28;19913;-75
2024/01/09 04:12:57;;;;;;;;;;;;;;;-3.84;88.27;103369.94;5036276;28;20117;-75
2024/01/09 04:15:22;;;;;;;;;;;;;;;-3.75;88.68;103367.06;5035331;28;19917;-74
2024/01/09 04:17:47;;;;;;;;;;;;;;;-3.87;87.79;103365.53;5035935;28;19993;-75
2024/01/09 04:20:13;;;;;;;;;;;;;;;-3.83;88.52;103361.50;5035351;28;20185;-74
2024/01/09 04:22:38;;;;;;;;;;;;;;;-3.74;89.30;103362.03;5036637;28;20218;-75
2024/01/09 04:25:04;;;;;;;;;;;;;;;-3.82;88.57;103365.84;5031604;28;20179;-75
2024/01/09 04:27:29;;;;;;;;;;;;;;;-3.90;87.98;103377.28;5016243;28;19948;-75
2024/01/09 04:29:54;;;;;;;;;;;;;;;-3.89;88.31;103363.72;5016136;28;19913;-75
2024/01/09 04:32:19;;;;;;;;;;;;;;;-3.89;88.20;103367.13;5015790;28;19918;-75
2024/01/09 04:34:45;;;;;;;;;;;;;;;-3.99;87.92;103374.19;5025824;28;19920;-75
2024/01/09 04:37:10;;;;;;;;;;;;;;;-3.92;88.65;103379.75;5033715;28;19917;-75
2024/01/09 04:39:35;;;;;;;;;;;;;;;-4.01;88.63;103366.41;5035544;28;19913;-75
2024/01/09 04:42:00;;;;;;;;;;;;;;;-3.82;89.56;103375.16;5034504;28;19987;-75
2024/01/09 04:44:25;;;;;;;;;;;;;;;-3.73;89.56;103373.16;5035590;28;19920;-75
2024/01/09 04:46:51;;;;;;;;;;;;;;;-3.73;89.66;103365.47;5022990;28;19917;-75
2024/01/09 04:49:16;;;;;;;;;;;;;;;-3.79;88.96;103365.13;5023917;28;19955;-75
2024/01/09 04:51:41;;;;;;;;;;;;;;;-3.75;89.58;103367.06;5034796;28;19924;-75
2024/01/09 04:54:07;;;;;;;;;;;;;;;-3.67;89.41;103364.16;5035350;28;20260;-75
2024/01/09 04:56:33;;;;;;;;;;;;;;;-3.64;89.37;103373.69;5034909;28;19916;-75
2024/01/09 04:58:58;;;;;;;;;;;;;;;-3.77;88.36;103364.41;5034741;28;19955;-75
2024/01/09 05:01:23;;;;;;;;;;;;;;;-3.88;87.81;103362.88;5034523;28;20143;-75
2024/01/09 05:03:49;;;;;;;;;;;;;;;-3.83;88.25;103360.63;5035350;28;20038;-75
2024/01/09 05:06:18;;;;;;;;;;;;;;;-3.92;88.58;103366.06;5034966;28;20284;-75
2024/01/09 05:08:44;;;;;;;;;;;;;;;-4.00;88.16;103368.19;5034886;28;19917;-75
2024/01/09 05:11:09;;;;;;;;;;;;;;;-3.93;88.37;103359.16;5034362;28;19997;-75
2024/01/09 05:13:34;;;;;;;;;;;;;;;-3.86;88.76;103368.97;5033967;28;19924;-75
2024/01/09 05:16:00;;;;;;;;;;;;;;;-3.88;89.41;103363.75;5035256;28;20306;-75
2024/01/09 05:18:25;;;;;;;;;;;;;;;-3.86;89.05;103367.31;5035379;28;20185;-75
2024/01/09 05:20:50;;;;;;;;;;;;;;;-3.86;89.14;103363.88;5015007;28;19921;-75
2024/01/09 05:23:16;;;;;;;;;;;;;;;-3.88;89.30;103362.88;5030553;28;19920;-75
2024/01/09 05:25:41;;;;;;;;;;;;;;;-3.94;89.08;103367.66;5034914;28;19917;-75
2024/01/09 05:28:06;;;;;;;;;;;;;;;-3.93;88.94;103360.06;5033819;28;20203;-75
2024/01/09 05:30:31;;;;;;;;;;;;;;;-3.83;89.33;103366.63;5034528;28;19963;-75
2024/01/09 05:32:57;;;;;;;;;;;;;;;-3.92;88.41;103366.94;5034233;28;19944;-75
2024/01/09 05:35:22;;;;;;;;;;;;;;;-3.92;88.19;103372.06;5034633;28;19932;-75
2024/01/09 05:37:47;;;;;;;;;;;;;;;-3.92;88.30;103360.94;5034551;28;19924;-75
2024/01/09 05:40:12;;;;;;;;;;;;;;;-3.98;87.96;103370.81;5034020;28;20263;-75
2024/01/09 05:42:38;;;;;;;;;;;;;;;-4.01;88.04;103368.97;5034008;28;19913;-75
2024/01/09 05:45:04;;;;;;;;;;;;;;;-4.10;87.54;103381.22;5034222;28;19955;-75
2024/01/09 05:47:30;;;;;;;;;;;;;;;-4.05;88.17;103364.47;5033786;28;19924;-75
2024/01/09 05:49:55;;;;;;;;;;;;;;;-4.12;88.04;103370.88;5034190;28;20252;-75
2024/01/09 05:52:20;;;;;;;;;;;;;;;-4.19;87.91;103367.88;5032473;28;20260;-75
2024/01/09 05:54:46;;;;;;;;;;;;;;;-4.13;87.61;103365.66;5034037;28;20108;-75
2024/01/09 05:57:11;;;;;;;;;;;;;;;-4.14;87.73;103372.47;5020303;28;20105;-75
2024/01/09 05:59:37;;;;;;;;;;;;;;;-4.18;87.39;103373.06;5015051;28;20213;-75
2024/01/09 06:02:02;;;;;;;;;;;;;;;-4.34;86.96;103371.25;5014232;28;19928;-75
2024/01/09 06:04:27;;;;;;;;;;;;;;;-4.15;87.59;103374.94;5028839;28;19905;-75
2024/01/09 06:06:52;;;;;;;;;;;;;;;-4.19;87.00;103381.53;5023827;28;20197;-75
2024/01/09 06:09:18;;;;;;;;;;;;;;;-4.30;86.94;103374.88;5015896;28;20212;-75
2024/01/09 06:11:43;;;;;;;;;;;;;;;-4.38;86.92;103382.09;5015691;28;19910;-75
2024/01/09 06:14:08;;;;;;;;;;;;;;;-4.20;87.55;103382.34;5024352;28;19959;-75
2024/01/09 06:16:33;;;;;;;;;;;;;;;-4.13;87.44;103379.38;5033474;28;19921;-75
2024/01/09 06:18:59;;;;;;;;;;;;;;;-4.21;86.14;103382.25;5033260;28;20216;-75
2024/01/09 06:21:24;;;;;;;;;;;;;;;-4.28;86.45;103383.53;5035293;28;20154;-75
2024/01/09 06:23:49;;;;;;;;;;;;;;;-4.16;86.74;103384.28;5027517;28;20243;-75
2024/01/09 06:26:15;;;;;;;;;;;;;;;-4.24;86.38;103393.16;5018710;28;20084;-75
2024/01/09 06:28:41;;;;;;;;;;;;;;;-4.14;87.43;103389.50;5018778;28;20105;-75
2024/01/09 06:31:06;;;;;;;;;;;;;;;-4.13;88.10;103389.59;5020289;28;19917;-75
2024/01/09 06:33:31;;;;;;;;;;;;;;;-4.25;88.17;103391.41;5018311;28;19945;-75
2024/01/09 06:35:57;;;;;;;;;;;;;;;-4.21;88.08;103397.59;5017784;28;20283;-75
2024/01/09 06:38:22;;;;;;;;;;;;;;;-4.26;87.78;103400.75;5018504;28;19972;-75
2024/01/09 06:40:47;;;;;;;;;;;;;;;-4.25;88.12;103404.19;5027221;28;19939;-75
2024/01/09 06:43:13;;;;;;;;;;;;;;;-4.27;87.61;103404.09;5033078;28;20295;-75
2024/01/09 06:45:38;;;;;;;;;;;;;;;-4.22;87.82;103411.16;5036495;28;20220;-75
2024/01/09 06:48:03;;;;;;;;;;;;;;;-4.31;86.79;103403.81;5037374;28;19968;-75
2024/01/09 06:50:29;;;;;;;;;;;;;;;-4.22;87.13;103412.06;5026241;28;19909;-75
2024/01/09 06:52:54;;;;;;;;;;;;;;;-4.25;86.50;103407.63;5026944;28;19944;-75
2024/01/09 06:55:19;;;;;;;;;;;;;;;-4.31;86.17;103402.16;5032686;28;19963;-75
2024/01/09 06:57:45;;;;;;;;;;;;;;;-4.20;87.01;103405.38;5037815;28;20003;-75
2024/01/09 07:00:10;;;;;;;;;;;;;;;-4.18;86.93;103410.56;5037084;28;19928;-75
2024/01/09 07:02:36;;;;;;;;;;;;;;;-4.19;86.43;103396.88;5037423;28;20132;-75
2024/01/09 07:05:01;;;;;;;;;;;;;;;-4.23;86.39;103400.06;5034974;28;19917;-75
2024/01/09 07:07:26;;;;;;;;;;;;;;;-4.45;85.83;103401.28;5019626;28;19917;-75
2024/01/09 07:09:51;;;;;;;;;;;;;;;-4.31;86.63;103407.28;5026540;28;19944;-75
2024/01/09 07:12:17;;;;;;;;;;;;;;;-4.39;86.25;103411.00;5017825;28;19913;-75
2024/01/09 07:14:43;;;;;;;;;;;;;;;-4.39;86.33;103407.56;5027402;28;19956;-75
2024/01/09 07:17:08;;;;;;;;;;;;;;;-4.41;86.09;103415.16;5036475;28;19996;-75
2024/01/09 07:19:34;;;;;;;;;;;;;;;-4.44;85.62;103414.94;5036550;28;19911;-75
2024/01/09 07:21:59;;;;;;;;;;;;;;;-4.52;85.27;103406.81;5035514;28;19917;-75
2024/01/09 07:24:24;;;;;;;;;;;;;;;-4.45;86.05;103415.75;5035670;28;20186;-75
2024/01/09 07:26:50;;;;;;;;;;;;;;;-4.42;86.51;103421.09;5024415;28;19917;-75
2024/01/09 07:29:17;;;;;;;;;;;;;;;-4.31;87.17;103414.03;5028173;28;19917;-75
2024/01/09 07:31:43;;;;;;;;;;;;;;;-4.31;87.55;103424.28;5026386;28;20440;-75
2024/01/09 07:34:08;;;;;;;;;;;;;;;-4.48;87.09;103423.22;5028380;28;20464;-75
2024/01/09 07:36:33;;;;;;;;;;;;;;;-4.45;87.30;103424.31;5049081;28;19958;-75
2024/01/09 07:38:58;;;;;;;;;;;;;;;-4.39;87.40;103433.16;5053919;28;19951;-75
2024/01/09 07:41:24;;;;;;;;;;;;;;;-4.21;88.97;103435.97;5055248;28;20209;-75
2024/01/09 07:43:49;;;;;;;;;;;;;;;-4.36;87.50;103441.91;5055119;28;20262;-75
2024/01/09 07:46:14;;;;;;;;;;;;;;;-4.27;87.94;103447.59;5041802;28;20109;-75
2024/01/09 07:48:40;;;;;;;;;;;;;;;-4.36;87.25;103457.25;5025507;28;19972;-75
2024/01/09 07:51:05;;;;;;;;;;;;;;;-4.41;86.38;103453.53;5035440;28;19913;-75
2024/01/09 07:53:30;;;;;;;;;;;;;;;-4.40;86.81;103463.00;5017772;28;19941;-75
2024/01/09 07:55:56;;;;;;;;;;;;;;;-4.44;86.26;103461.91;5016651;28;19917;-75
2024/01/09 07:58:21;;;;;;;;;;;;;;;-4.55;85.38;103464.56;5023659;28;19990;-75
2024/01/09 08:00:46;;;;;;;;;;;;;;;-4.59;85.39;103472.84;5036756;28;19913;-75
2024/01/09 08:03:13;;;;;;;;;;;;;;;-4.56;85.69;103468.81;5021890;28;19917;-75
2024/01/09 08:05:39;;;;;;;;;;;;;;;-4.65;85.25;103481.00;5017983;28;19913;-75
2024/01/09 08:08:04;;;;;;;;;;;;;;;-4.45;86.61;103467.81;5030617;28;20230;-75
2024/01/09 08:10:30;;;;;;;;;;;;;;;-4.46;86.74;103472.81;5035299;28;19919;-75
2024/01/09 08:12:55;;;;;;;;;;;;;;;-4.41;86.50;103474.00;5028744;28;19917;-75
2024/01/09 08:15:21;;;;;;;;;;;;;;;-4.41;86.37;103474.00;5025005;28;19925;-75
2024/01/09 08:17:46;;;;;;;;;;;;;;;-4.42;86.07;103472.25;5026389;28;19920;-75
2024/01/09 08:20:11;;;;;;;;;;;;;;;-4.53;85.09;103481.78;5028467;28;19932;-75
2024/01/09 08:22:36;;;;;;;;;;;;;;;-4.59;85.12;103477.94;5032972;28;20181;-75
2024/01/09 08:25:02;;;;;;;;;;;;;;;-4.50;85.98;103481.97;5026517;28;19917;-75
2024/01/09 08:27:28;;;;;;;;;;;;;;;-4.65;84.74;103487.00;5035439;28;19913;-75
2024/01/09 08:29:53;;;;;;;;;;;;;;;-4.64;84.07;103482.75;5027124;28;20208;-75
2024/01/09 08:32:18;;;;;;;;;;;;;;;-4.72;83.10;103487.38;5045584;28;20116;-75
2024/01/09 08:34:43;;;;;;;;;;;;;;;-4.54;83.78;103485.13;5038274;28;20093;-75
2024/01/09 08:37:09;;;;;;;;;;;;;;;-4.49;84.40;103483.75;5041533;28;19995;-75
2024/01/09 08:39:34;;;;;;;;;;;;;;;-4.47;85.12;103483.84;5036479;28;19921;-75
2024/01/09 08:41:59;;;;;;;;;;;;;;;-4.39;84.45;103486.88;5037033;28;19920;-75
2024/01/09 08:44:26;;;;;;;;;;;;;;;-4.45;84.03;103482.28;5040511;28;19917;-75
2024/01/09 08:46:52;;;;;;;;;;;;;;;-4.41;83.65;103486.78;5035358;28;19962;-75
2024/01/09 08:49:17;;;;;;;;;;;;;;;-4.39;83.35;103484.34;5041787;28;19975;-75
2024/01/09 08:51:42;;;;;;;;;;;;;;;-4.41;82.78;103479.13;5050905;28;19919;-75
2024/01/09 08:54:08;;;;;;;;;;;;;;;-4.45;81.92;103487.38;5047379;28;20290;-75
2024/01/09 08:56:33;;;;;;;;;;;;;;;-4.61;81.22;103482.97;5049925;28;20008;-75
2024/01/09 08:58:58;;;;;;;;;;;;;;;-4.54;80.96;103494.47;5045976;28;20119;-75
2024/01/09 09:01:25;;;;;;;;;;;;;;;-4.44;82.40;103492.59;5036311;28;21033;-75
2024/01/09 09:03:50;;;;;;;;;;;;;;;-4.36;82.92;103492.22;5034575;28;20155;-75
2024/01/09 09:06:16;;;;;;;;;;;;;;;-4.44;81.41;103492.59;5030658;28;19917;-75
2024/01/09 09:08:42;;;;;;;;;;;;;;;-4.41;80.88;103491.91;5039545;28;20909;-75
2024/01/09 09:11:07;;;;;;;;;;;;;;;-4.42;79.87;103490.16;5038466;28;20050;-75
2024/01/09 09:13:32;;;;;;;;;;;;;;;-4.56;79.38;103491.81;5030734;28;19909;-75
2024/01/09 09:15:57;;;;;;;;;;;;;;;-4.55;79.33;103487.56;5028821;28;20228;-75
2024/01/09 09:18:23;;;;;;;;;;;;;;;-4.54;79.54;103487.69;5030713;28;20330;-75
2024/01/09 09:20:48;;;;;;;;;;;;;;;-4.53;79.58;103486.91;5029843;28;19991;-75
2024/01/09 09:23:13;;;;;;;;;;;;;;;-4.53;79.48;103481.78;5034098;28;19916;-75
2024/01/09 09:25:39;;;;;;;;;;;;;;;-4.48;79.55;103480.38;5038672;28;20414;-75
2024/01/09 09:28:04;;;;;;;;;;;;;;;-4.39;79.17;103480.09;5039507;28;19917;-75
2024/01/09 09:30:29;;;;;;;;;;;;;;;-4.48;78.48;103474.41;5038186;28;19924;-75
2024/01/09 09:32:58;;;;;;;;;;;;;;;-4.33;78.86;103475.38;5047963;28;19924;-75
2024/01/09 09:35:23;;;;;;;;;;;;;;;-4.39;77.95;103480.09;5046183;28;19920;-75
2024/01/09 09:37:48;;;;;;;;;;;;;;;-4.43;77.62;103484.13;5050038;28;20223;-75
2024/01/09 09:40:14;;;;;;;;;;;;;;;-4.34;77.90;103485.50;5043404;28;20219;-75
2024/01/09 09:42:41;;;;;;;;;;;;;;;-4.29;77.31;103485.00;5044806;28;19916;-75
2024/01/09 09:45:09;;;;;;;;;;;;;;;-4.34;76.64;103480.41;5044196;28;19948;-75
2024/01/09 09:47:34;;;;;;;;;;;;;;;-4.34;76.49;103486.38;5036506;28;20256;-75
2024/01/09 09:50:00;;;;;;;;;;;;;;;-4.32;76.30;103483.94;5031821;28;19923;-75
2024/01/09 09:52:26;;;;;;;;;;;;;;;-4.31;76.19;103488.25;5036683;28;19912;-75
2024/01/09 09:54:52;;;;;;;;;;;;;;;-4.21;76.09;103482.03;5038538;28;20158;-75
2024/01/09 09:57:17;;;;;;;;;;;;;;;-4.25;75.50;103480.97;5041082;28;19939;-75
2024/01/09 09:59:42;;;;;;;;;;;;;;;-4.22;75.09;103480.25;5036159;28;20199;-75
2024/01/09 10:02:12;;;;;;;;;;;;;;;-4.21;75.38;103484.59;5028094;28;19917;-75
2024/01/09 10:04:40;;;;;;;;;;;;;;;-4.19;74.86;103477.91;5030126;28;19916;-75
2024/01/09 10:07:06;;;;;;;;;;;;;;;-4.13;74.78;103479.19;5029919;28;19913;-75
2024/01/09 10:09:34;;;;;;;;;;;;;;;-4.08;74.37;103480.31;5030045;28;19956;-75
2024/01/09 10:11:59;;;;;;;;;;;;;;;-3.97;74.66;103480.13;5030151;28;19905;-75
2024/01/09 10:14:24;;;;;;;;;;;;;;;-3.92;74.19;103476.16;5035244;28;20266;-76
2024/01/09 10:16:50;;;;;;;;;;;;;;;-3.97;72.64;103488.66;5031003;28;20166;-75
2024/01/09 10:19:16;;;;;;;;;;;;;;;-3.96;71.72;103487.03;5041518;28;19921;-75
2024/01/09 10:21:41;;;;;;;;;;;;;;;-3.90;72.52;103478.00;5032854;28;20231;-75
2024/01/09 10:24:07;;;;;;;;;;;;;;;-3.80;72.54;103481.13;5031189;28;19912;-75
2024/01/09 10:26:33;;;;;;;;;;;;;;;-3.76;72.14;103473.75;5030999;28;19980;-75
2024/01/09 10:28:58;;;;;;;;;;;;;;;-3.71;72.36;103472.34;5030832;28;19940;-75
2024/01/09 10:31:24;;;;;;;;;;;;;;;-3.68;71.85;103472.50;5031072;28;19916;-75
2024/01/09 10:33:49;;;;;;;;;;;;;;;-3.70;71.24;103473.22;5031289;28;19944;-75
2024/01/09 10:36:14;;;;;;;;;;;;;;;-3.73;70.83;103466.25;5029928;28;20840;-75
2024/01/09 10:38:40;;;;;;;;;;;;;;;-3.69;71.20;103472.44;5032632;28;19917;-75
2024/01/09 10:41:16;;;;;;;;;;;;;;;-3.61;70.82;103457.53;5038589;28;19916;-75
2024/01/09 10:43:42;;;;;;;;;;;;;;;-3.64;70.54;103458.22;5039313;28;19924;-75
2024/01/09 10:46:08;;;;;;;;;;;;;;;-3.56;70.56;103459.56;5038682;28;19917;-75
2024/01/09 10:48:34;;;;;;;;;;;;;;;-3.52;70.46;103452.94;5028696;28;19917;-75
2024/01/09 10:51:00;;;;;;;;;;;;;;;-3.46;69.99;103453.31;5037284;28;19916;-75
2024/01/09 10:53:27;;;;;;;;;;;;;;;-3.39;69.89;103445.19;5041465;28;20146;-75
2024/01/09 10:55:54;;;;;;;;;;;;;;;-3.38;69.43;103441.84;5048794;28;20159;-75
2024/01/09 10:58:19;;;;;;;;;;;;;;;-3.40;69.26;103437.41;5043741;28;19916;-75
2024/01/09 11:00:45;;;;;;;;;;;;;;;-3.37;68.69;103433.34;5045965;28;19931;-75
2024/01/09 11:03:11;;;;;;;;;;;;;;;-3.37;68.60;103435.91;5044156;28;19917;-75
2024/01/09 11:05:37;;;;;;;;;;;;;;;-3.28;68.81;103436.44;5047495;28;19921;-75
2024/01/09 11:08:05;;;;;;;;;;;;;;;-3.25;68.19;103429.75;5038693;28;19924;-75
2024/01/09 11:10:31;;;;;;;;;;;;;;;-3.23;68.09;103428.16;5041434;28;20155;-75
2024/01/09 11:12:58;;;;;;;;;;;;;;;-3.18;67.50;103421.63;5039804;28;20007;-75
2024/01/09 11:15:26;;;;;;;;;;;;;;;-3.11;67.13;103419.47;5041090;28;19927;-75
2024/01/09 11:18:04;;;;;;;;;;;;;;;-3.17;66.45;103413.97;5039401;28;19983;-75
2024/01/09 11:20:30;;;;;;;;;;;;;;;-3.10;66.01;103413.53;5039365;28;19924;-75
2024/01/09 11:22:55;;;;;;;;;;;;;;;-3.10;65.21;103408.41;5039050;28;19913;-75
2024/01/09 11:25:21;;;;;;;;;;;;;;;-3.02;64.50;103413.09;5043580;28;19935;-75
2024/01/09 11:27:49;;;;;;;;;;;;;;;-3.02;64.23;103419.13;5043038;28;19924;-75
2024/01/09 11:30:15;;;;;;;;;;;;;;;-2.94;64.70;103386.22;5039209;28;20415;-75
2024/01/09 11:32:41;;;;;;;;;;;;;;;-2.91;63.46;103394.06;5041709;28;20244;-75
2024/01/09 11:35:12;;;;;;;;;;;;;;;-2.89;62.75;103384.78;5040992;28;19931;-75
2024/01/09 11:37:39;;;;;;;;;;;;;;;-2.78;62.63;103376.00;5038802;28;19925;-75
2024/01/09 11:40:09;;;;;;;;;;;;;;;-2.74;62.91;103377.06;5038545;28;19924;-75
2024/01/09 11:42:37;;;;;;;;;;;;;;;-2.68;61.90;103368.81;5045808;28;19916;-75
2024/01/09 11:45:07;;;;;;;;;;;;;;;-2.61;62.38;103368.34;5041875;28;20249;-75
2024/01/09 11:47:35;;;;;;;;;;;;;;;-2.57;60.83;103370.28;5039142;28;19962;-75
2024/01/09 11:50:00;;;;;;;;;;;;;;;-2.52;60.55;103367.16;5040262;28;19917;-75
2024/01/09 11:52:28;;;;;;;;;;;;;;;-2.47;59.53;103353.66;5037678;28;20155;-75
2024/01/09 11:54:54;;;;;;;;;;;;;;;-2.41;59.80;103349.75;5039533;28;19996;-75
2024/01/09 11:57:20;;;;;;;;;;;;;;;-2.40;59.52;103350.63;5042439;28;20256;-76
2024/01/09 11:59:47;;;;;;;;;;;;;;;-2.33;59.39;103353.63;5041609;28;19920;-76
2024/01/09 12:02:12;;;;;;;;;;;;;;;-2.27;59.69;103355.63;5037645;28;20100;-76
2024/01/09 12:04:39;;;;;;;;;;;;;;;-2.23;59.13;103348.97;5041952;28;19951;-76
2024/01/09 12:07:05;;;;;;;;;;;;;;;-2.16;58.62;103341.66;5043299;28;20196;-76
2024/01/09 12:09:30;;;;;;;;;;;;;;;-2.17;57.53;103345.03;5041821;28;20248;-76
2024/01/09 12:11:56;;;;;;;;;;;;;;;-2.13;58.61;103344.41;5040709;28;20135;-76
2024/01/09 12:14:21;;;;;;;;;;;;;;;-2.11;59.11;103336.78;5044099;28;19925;-76
2024/01/09 12:16:46;;;;;;;;;;;;;;;-2.05;58.84;103341.34;5048195;28;20164;-76
2024/01/09 12:19:14;;;;;;;;;;;;;;;-2.02;58.94;103347.53;5046637;28;19967;-76
2024/01/09 12:21:39;;;;;;;;;;;;;;;-1.93;58.56;103339.38;5047661;28;19983;-76
2024/01/09 12:24:06;;;;;;;;;;;;;;;-1.92;56.50;103343.72;5049946;28;20054;-76
2024/01/09 12:26:32;;;;;;;;;;;;;;;-1.95;55.77;103341.91;5049212;28;19916;-76
2024/01/09 12:28:58;;;;;;;;;;;;;;;-1.95;56.00;103334.19;5047988;28;19916;-76